sensor_id;sensor_type;location;lat;lon;timestamp;temperature;humidity
13642;DHT22;6894;52.196;9.904;2023-11-21T00:02:03;8.50;1.00
13642;DHT22;6894;52.196;9.904;2023-11-21T00:04:31;8.50;1.00
13642;DHT22;6894;52.196;9.904;2023-11-21T00:06:58;8.60;1.00
13642;DHT22;6894;52.196;9.904;2023-11-21T00:09:24;8.60;1.00
13642;DHT22;6894;52.196;9.904;2023-11-21T00:11:51;8.60;1.00
13642;DHT22;6894;52.196;9.904;2023-11-21T00:14:18;8.60;1.00
13642;DHT22;6894;52.196;9.904;2023-11-21T00:16:44;8.60;1.00
13642;DHT22;6894;52.196;9.904;2023-11-21T00:19:11;8.60;1.00
13642;DHT22;6894;52.196;9.904;2023-11-21T00:21:40;8.60;1.00
13642;DHT22;6894;52.196;9.904;2023-11-21T00:24:09;8.70;1.00
13642;DHT22;6894;52.196;9.904;2023-11-21T00:26:39;8.70;1.00
13642;DHT22;6894;52.196;9.904;2023-11-21T00:29:06;8.60;1.00
13642;DHT22;6894;52.196;9.904;2023-11-21T00:31:33;8.70;1.00
13642;DHT22;6894;52.196;9.904;2023-11-21T00:34:02;8.60;1.00
13642;DHT22;6894;52.196;9.904;2023-11-21T00:36:29;8.70;1.00
13642;DHT22;6894;52.196;9.904;2023-11-21T00:38:57;8.70;1.00
13642;DHT22;6894;52.196;9.904;2023-11-21T00:41:24;8.70;1.00
13642;DHT22;6894;52.196;9.904;2023-11-21T00:43:53;8.60;1.00
13642;DHT22;6894;52.196;9.904;2023-11-21T00:46:20;8.70;1.00
13642;DHT22;6894;52.196;9.904;2023-11-21T00:48:47;8.60;1.00
13642;DHT22;6894;52.196;9.904;2023-11-21T00:51:14;8.70;1.00
13642;DHT22;6894;52.196;9.904;2023-11-21T00:53:40;8.60;1.00
13642;DHT22;6894;52.196;9.904;2023-11-21T00:56:08;8.70;1.00
13642;DHT22;6894;52.196;9.904;2023-11-21T00:58:35;8.70;1.00
13642;DHT22;6894;52.196;9.904;2023-11-21T01:01:02;8.60;1.00
13642;DHT22;6894;52.196;9.904;2023-11-21T01:03:29;8.60;1.00
13642;DHT22;6894;52.196;9.904;2023-11-21T01:05:56;8.70;1.00
13642;DHT22;6894;52.196;9.904;2023-11-21T01:08:22;8.70;1.00
13642;DHT22;6894;52.196;9.904;2023-11-21T01:10:50;8.70;1.00
13642;DHT22;6894;52.196;9.904;2023-11-21T01:13:18;8.70;1.00
13642;DHT22;6894;52.196;9.904;2023-11-21T01:15:44;8.70;1.00
13642;DHT22;6894;52.196;9.904;2023-11-21T01:18:11;8.70;1.00
13642;DHT22;6894;52.196;9.904;2023-11-21T01:20:38;8.70;1.00
13642;DHT22;6894;52.196;9.904;2023-11-21T01:23:05;8.70;1.00
13642;DHT22;6894;52.196;9.904;2023-11-21T01:25:32;8.70;1.00
13642;DHT22;6894;52.196;9.904;2023-11-21T01:27:58;8.70;1.00
13642;DHT22;6894;52.196;9.904;2023-11-21T01:30:26;8.70;1.00
13642;DHT22;6894;52.196;9.904;2023-11-21T01:32:53;8.80;1.00
13642;DHT22;6894;52.196;9.904;2023-11-21T01:35:20;8.80;1.00
13642;DHT22;6894;52.196;9.904;2023-11-21T01:37:47;8.80;1.00
13642;DHT22;6894;52.196;9.904;2023-11-21T01:40:14;8.80;1.00
13642;DHT22;6894;52.196;9.904;2023-11-21T01:42:41;8.70;1.00
13642;DHT22;6894;52.196;9.904;2023-11-21T01:45:09;8.80;1.00
13642;DHT22;6894;52.196;9.904;2023-11-21T01:47:39;8.80;1.00
13642;DHT22;6894;52.196;9.904;2023-11-21T01:50:08;8.80;1.00
13642;DHT22;6894;52.196;9.904;2023-11-21T01:52:38;8.80;1.00
13642;DHT22;6894;52.196;9.904;2023-11-21T01:55:07;8.80;1.00
13642;DHT22;6894;52.196;9.904;2023-11-21T01:57:35;8.80;1.00
13642;DHT22;6894;52.196;9.904;2023-11-21T02:00:04;8.80;1.00
13642;DHT22;6894;52.196;9.904;2023-11-21T02:02:42;8.70;1.00
13642;DHT22;6894;52.196;9.904;2023-11-21T02:05:09;8.80;1.00
13642;DHT22;6894;52.196;9.904;2023-11-21T02:07:38;8.80;1.00
13642;DHT22;6894;52.196;9.904;2023-11-21T02:10:05;8.80;1.00
13642;DHT22;6894;52.196;9.904;2023-11-21T02:12:33;8.80;1.00
13642;DHT22;6894;52.196;9.904;2023-11-21T02:15:00;8.80;1.00
13642;DHT22;6894;52.196;9.904;2023-11-21T02:17:27;8.80;1.00
13642;DHT22;6894;52.196;9.904;2023-11-21T02:19:55;8.70;1.00
13642;DHT22;6894;52.196;9.904;2023-11-21T02:22:22;8.80;1.00
13642;DHT22;6894;52.196;9.904;2023-11-21T02:24:53;8.80;1.00
13642;DHT22;6894;52.196;9.904;2023-11-21T02:27:19;8.70;1.00
13642;DHT22;6894;52.196;9.904;2023-11-21T02:29:48;8.70;1.00
13642;DHT22;6894;52.196;9.904;2023-11-21T02:32:15;8.70;1.00
13642;DHT22;6894;52.196;9.904;2023-11-21T02:34:44;8.70;1.00
13642;DHT22;6894;52.196;9.904;2023-11-21T02:37:11;8.70;1.00
13642;DHT22;6894;52.196;9.904;2023-11-21T02:39:38;8.70;1.00
13642;DHT22;6894;52.196;9.904;2023-11-21T02:42:06;8.70;1.00
13642;DHT22;6894;52.196;9.904;2023-11-21T02:44:33;8.80;1.00
13642;DHT22;6894;52.196;9.904;2023-11-21T02:47:00;8.70;1.00
13642;DHT22;6894;52.196;9.904;2023-11-21T02:49:26;8.70;1.00
13642;DHT22;6894;52.196;9.904;2023-11-21T02:51:53;8.70;1.00
13642;DHT22;6894;52.196;9.904;2023-11-21T02:54:21;8.60;1.00
13642;DHT22;6894;52.196;9.904;2023-11-21T02:56:48;8.80;1.00
13642;DHT22;6894;52.196;9.904;2023-11-21T02:59:17;8.70;1.00
13642;DHT22;6894;52.196;9.904;2023-11-21T03:01:45;8.70;1.00
13642;DHT22;6894;52.196;9.904;2023-11-21T03:04:11;8.70;17.50
13642;DHT22;6894;52.196;9.904;2023-11-21T03:06:43;8.70;1.00
13642;DHT22;6894;52.196;9.904;2023-11-21T03:09:09;8.70;1.00
13642;DHT22;6894;52.196;9.904;2023-11-21T03:11:37;8.60;1.00
13642;DHT22;6894;52.196;9.904;2023-11-21T03:14:04;8.70;35.00
13642;DHT22;6894;52.196;9.904;2023-11-21T03:16:32;8.60;5.50
13642;DHT22;6894;52.196;9.904;2023-11-21T03:18:58;8.70;30.20
13642;DHT22;6894;52.196;9.904;2023-11-21T03:21:25;8.70;10.70
13642;DHT22;6894;52.196;9.904;2023-11-21T03:23:52;8.60;97.30
13642;DHT22;6894;52.196;9.904;2023-11-21T03:26:19;8.70;94.00
13642;DHT22;6894;52.196;9.904;2023-11-21T03:28:46;8.70;99.90
13642;DHT22;6894;52.196;9.904;2023-11-21T03:31:12;8.70;99.90
13642;DHT22;6894;52.196;9.904;2023-11-21T03:33:43;8.60;99.90
13642;DHT22;6894;52.196;9.904;2023-11-21T03:36:11;8.60;99.90
13642;DHT22;6894;52.196;9.904;2023-11-21T03:38:38;8.60;99.90
13642;DHT22;6894;52.196;9.904;2023-11-21T03:41:05;8.60;99.90
13642;DHT22;6894;52.196;9.904;2023-11-21T03:43:32;8.60;99.90
13642;DHT22;6894;52.196;9.904;2023-11-21T03:45:58;8.60;99.90
13642;DHT22;6894;52.196;9.904;2023-11-21T03:48:25;8.60;99.90
13642;DHT22;6894;52.196;9.904;2023-11-21T03:50:53;8.60;99.90
13642;DHT22;6894;52.196;9.904;2023-11-21T03:53:19;8.60;99.90
13642;DHT22;6894;52.196;9.904;2023-11-21T03:55:46;8.50;99.90
13642;DHT22;6894;52.196;9.904;2023-11-21T03:58:12;8.50;99.90
13642;DHT22;6894;52.196;9.904;2023-11-21T04:00:39;8.50;99.90
13642;DHT22;6894;52.196;9.904;2023-11-21T04:03:06;8.50;99.90
13642;DHT22;6894;52.196;9.904;2023-11-21T04:05:32;8.50;99.90
13642;DHT22;6894;52.196;9.904;2023-11-21T04:08:00;8.50;99.90
13642;DHT22;6894;52.196;9.904;2023-11-21T04:10:27;8.50;99.90
13642;DHT22;6894;52.196;9.904;2023-11-21T04:12:54;8.50;99.90
13642;DHT22;6894;52.196;9.904;2023-11-21T04:15:21;8.50;99.90
13642;DHT22;6894;52.196;9.904;2023-11-21T04:17:47;8.50;99.90
13642;DHT22;6894;52.196;9.904;2023-11-21T04:20:14;8.50;1.00
13642;DHT22;6894;52.196;9.904;2023-11-21T04:22:43;8.50;1.00
13642;DHT22;6894;52.196;9.904;2023-11-21T04:25:12;8.50;1.00
13642;DHT22;6894;52.196;9.904;2023-11-21T04:27:40;8.50;99.90
13642;DHT22;6894;52.196;9.904;2023-11-21T04:30:09;8.50;99.90
13642;DHT22;6894;52.196;9.904;2023-11-21T04:32:36;8.50;1.00
13642;DHT22;6894;52.196;9.904;2023-11-21T04:35:05;8.40;1.00
13642;DHT22;6894;52.196;9.904;2023-11-21T04:37:32;8.50;1.00
13642;DHT22;6894;52.196;9.904;2023-11-21T04:39:59;8.40;99.90
13642;DHT22;6894;52.196;9.904;2023-11-21T04:42:27;8.50;99.90
13642;DHT22;6894;52.196;9.904;2023-11-21T04:44:54;8.50;99.90
13642;DHT22;6894;52.196;9.904;2023-11-21T04:47:21;8.50;99.90
13642;DHT22;6894;52.196;9.904;2023-11-21T04:49:48;8.40;1.00
13642;DHT22;6894;52.196;9.904;2023-11-21T04:52:14;8.40;1.00
13642;DHT22;6894;52.196;9.904;2023-11-21T04:54:41;8.50;1.00
13642;DHT22;6894;52.196;9.904;2023-11-21T04:57:08;8.50;1.00
13642;DHT22;6894;52.196;9.904;2023-11-21T04:59:36;8.40;1.00
13642;DHT22;6894;52.196;9.904;2023-11-21T05:02:03;8.40;1.00
13642;DHT22;6894;52.196;9.904;2023-11-21T05:04:30;8.40;1.00
13642;DHT22;6894;52.196;9.904;2023-11-21T05:06:57;8.40;1.00
13642;DHT22;6894;52.196;9.904;2023-11-21T05:09:24;8.40;1.00
13642;DHT22;6894;52.196;9.904;2023-11-21T05:11:51;8.40;1.00
13642;DHT22;6894;52.196;9.904;2023-11-21T05:14:18;8.40;1.00
13642;DHT22;6894;52.196;9.904;2023-11-21T05:16:47;8.40;1.00
13642;DHT22;6894;52.196;9.904;2023-11-21T05:19:13;8.40;1.00
13642;DHT22;6894;52.196;9.904;2023-11-21T05:21:40;8.40;1.00
13642;DHT22;6894;52.196;9.904;2023-11-21T05:24:07;8.30;1.00
13642;DHT22;6894;52.196;9.904;2023-11-21T05:26:34;8.40;1.00
13642;DHT22;6894;52.196;9.904;2023-11-21T05:29:01;8.40;1.00
13642;DHT22;6894;52.196;9.904;2023-11-21T05:31:28;8.40;1.00
13642;DHT22;6894;52.196;9.904;2023-11-21T05:33:56;8.30;1.00
13642;DHT22;6894;52.196;9.904;2023-11-21T05:36:22;8.30;1.00
13642;DHT22;6894;52.196;9.904;2023-11-21T05:38:49;8.40;1.00
13642;DHT22;6894;52.196;9.904;2023-11-21T05:41:16;8.30;1.00
13642;DHT22;6894;52.196;9.904;2023-11-21T05:43:42;8.30;1.00
13642;DHT22;6894;52.196;9.904;2023-11-21T05:46:09;8.40;1.00
13642;DHT22;6894;52.196;9.904;2023-11-21T05:48:36;8.40;1.00
13642;DHT22;6894;52.196;9.904;2023-11-21T05:51:05;8.40;1.00
13642;DHT22;6894;52.196;9.904;2023-11-21T05:53:32;8.30;1.00
13642;DHT22;6894;52.196;9.904;2023-11-21T05:55:59;8.40;1.00
13642;DHT22;6894;52.196;9.904;2023-11-21T05:58:26;8.40;1.00
13642;DHT22;6894;52.196;9.904;2023-11-21T06:00:53;8.30;1.00
13642;DHT22;6894;52.196;9.904;2023-11-21T06:03:19;8.40;1.00
13642;DHT22;6894;52.196;9.904;2023-11-21T06:05:46;8.30;1.00
13642;DHT22;6894;52.196;9.904;2023-11-21T06:08:15;8.30;1.00
13642;DHT22;6894;52.196;9.904;2023-11-21T06:10:42;8.30;1.00
13642;DHT22;6894;52.196;9.904;2023-11-21T06:13:09;8.40;1.00
13642;DHT22;6894;52.196;9.904;2023-11-21T06:15:36;8.40;1.00
13642;DHT22;6894;52.196;9.904;2023-11-21T06:18:03;8.30;1.00
13642;DHT22;6894;52.196;9.904;2023-11-21T06:20:32;8.30;1.00
13642;DHT22;6894;52.196;9.904;2023-11-21T06:22:58;8.30;1.00
13642;DHT22;6894;52.196;9.904;2023-11-21T06:25:30;8.30;1.00
13642;DHT22;6894;52.196;9.904;2023-11-21T06:27:58;8.30;1.00
13642;DHT22;6894;52.196;9.904;2023-11-21T06:30:25;8.30;1.00
13642;DHT22;6894;52.196;9.904;2023-11-21T06:32:51;8.30;1.00
13642;DHT22;6894;52.196;9.904;2023-11-21T06:35:19;8.30;1.00
13642;DHT22;6894;52.196;9.904;2023-11-21T06:37:45;8.30;1.00
13642;DHT22;6894;52.196;9.904;2023-11-21T06:40:13;8.30;1.00
13642;DHT22;6894;52.196;9.904;2023-11-21T06:42:41;8.30;1.00
13642;DHT22;6894;52.196;9.904;2023-11-21T06:45:10;8.30;1.00
13642;DHT22;6894;52.196;9.904;2023-11-21T06:47:37;8.30;1.00
13642;DHT22;6894;52.196;9.904;2023-11-21T06:50:05;8.30;1.00
13642;DHT22;6894;52.196;9.904;2023-11-21T06:52:32;8.30;1.00
13642;DHT22;6894;52.196;9.904;2023-11-21T06:54:59;8.40;1.00
13642;DHT22;6894;52.196;9.904;2023-11-21T06:57:26;8.30;1.00
13642;DHT22;6894;52.196;9.904;2023-11-21T06:59:54;8.40;1.00
13642;DHT22;6894;52.196;9.904;2023-11-21T07:02:23;8.30;1.00
13642;DHT22;6894;52.196;9.904;2023-11-21T07:04:49;8.30;1.00
13642;DHT22;6894;52.196;9.904;2023-11-21T07:07:16;8.40;1.00
13642;DHT22;6894;52.196;9.904;2023-11-21T07:09:43;8.30;1.00
13642;DHT22;6894;52.196;9.904;2023-11-21T07:12:10;8.30;1.00
13642;DHT22;6894;52.196;9.904;2023-11-21T07:14:37;8.30;1.00
13642;DHT22;6894;52.196;9.904;2023-11-21T07:17:06;8.30;1.00
13642;DHT22;6894;52.196;9.904;2023-11-21T07:19:33;8.40;1.00
13642;DHT22;6894;52.196;9.904;2023-11-21T07:21:59;8.30;1.00
13642;DHT22;6894;52.196;9.904;2023-11-21T07:24:26;8.40;1.00
13642;DHT22;6894;52.196;9.904;2023-11-21T07:26:53;8.30;1.00
13642;DHT22;6894;52.196;9.904;2023-11-21T07:29:22;8.40;1.00
13642;DHT22;6894;52.196;9.904;2023-11-21T07:31:51;8.30;1.00
13642;DHT22;6894;52.196;9.904;2023-11-21T07:34:19;8.40;1.00
13642;DHT22;6894;52.196;9.904;2023-11-21T07:36:46;8.30;1.00
13642;DHT22;6894;52.196;9.904;2023-11-21T07:39:12;8.20;1.00
13642;DHT22;6894;52.196;9.904;2023-11-21T07:41:41;8.20;1.00
13642;DHT22;6894;52.196;9.904;2023-11-21T07:44:11;8.10;1.00
13642;DHT22;6894;52.196;9.904;2023-11-21T07:46:37;8.10;1.00
13642;DHT22;6894;52.196;9.904;2023-11-21T07:49:04;8.00;1.00
13642;DHT22;6894;52.196;9.904;2023-11-21T07:51:32;8.00;1.00
13642;DHT22;6894;52.196;9.904;2023-11-21T07:53:59;7.90;1.00
13642;DHT22;6894;52.196;9.904;2023-11-21T07:56:26;7.90;1.00
13642;DHT22;6894;52.196;9.904;2023-11-21T07:58:52;7.90;1.00
13642;DHT22;6894;52.196;9.904;2023-11-21T08:01:19;7.80;1.00
13642;DHT22;6894;52.196;9.904;2023-11-21T08:03:46;7.80;1.00
13642;DHT22;6894;52.196;9.904;2023-11-21T08:06:17;7.80;1.00
13642;DHT22;6894;52.196;9.904;2023-11-21T08:08:45;7.80;1.00
13642;DHT22;6894;52.196;9.904;2023-11-21T08:11:12;7.80;1.00
13642;DHT22;6894;52.196;9.904;2023-11-21T08:13:39;7.80;1.00
13642;DHT22;6894;52.196;9.904;2023-11-21T08:16:07;7.80;1.00
13642;DHT22;6894;52.196;9.904;2023-11-21T08:18:34;7.70;1.00
13642;DHT22;6894;52.196;9.904;2023-11-21T08:21:01;7.70;1.00
13642;DHT22;6894;52.196;9.904;2023-11-21T08:23:28;7.70;1.00
13642;DHT22;6894;52.196;9.904;2023-11-21T08:25:56;7.70;1.00
13642;DHT22;6894;52.196;9.904;2023-11-21T08:28:23;7.70;1.00
13642;DHT22;6894;52.196;9.904;2023-11-21T08:30:51;7.60;1.00
13642;DHT22;6894;52.196;9.904;2023-11-21T08:33:18;7.60;1.00
13642;DHT22;6894;52.196;9.904;2023-11-21T08:35:45;7.60;1.00
13642;DHT22;6894;52.196;9.904;2023-11-21T08:38:12;7.60;1.00
13642;DHT22;6894;52.196;9.904;2023-11-21T08:40:39;7.60;1.00
13642;DHT22;6894;52.196;9.904;2023-11-21T08:43:07;8.40;1.00
13642;DHT22;6894;52.196;9.904;2023-11-21T08:45:34;7.60;1.00
13642;DHT22;6894;52.196;9.904;2023-11-21T08:48:01;7.50;1.00
13642;DHT22;6894;52.196;9.904;2023-11-21T08:50:28;7.50;1.00
13642;DHT22;6894;52.196;9.904;2023-11-21T08:52:54;7.70;1.00
13642;DHT22;6894;52.196;9.904;2023-11-21T08:55:21;7.50;1.00
13642;DHT22;6894;52.196;9.904;2023-11-21T08:57:48;7.40;1.00
13642;DHT22;6894;52.196;9.904;2023-11-21T09:00:17;7.40;1.00
13642;DHT22;6894;52.196;9.904;2023-11-21T09:02:44;7.40;1.00
13642;DHT22;6894;52.196;9.904;2023-11-21T09:05:11;7.40;1.00
13642;DHT22;6894;52.196;9.904;2023-11-21T09:07:40;7.40;1.00
13642;DHT22;6894;52.196;9.904;2023-11-21T09:10:08;7.30;1.00
13642;DHT22;6894;52.196;9.904;2023-11-21T09:12:35;7.30;1.00
13642;DHT22;6894;52.196;9.904;2023-11-21T09:15:03;7.30;1.00
13642;DHT22;6894;52.196;9.904;2023-11-21T09:17:32;7.30;1.00
13642;DHT22;6894;52.196;9.904;2023-11-21T09:19:59;7.40;1.00
13642;DHT22;6894;52.196;9.904;2023-11-21T09:22:26;7.30;1.00
13642;DHT22;6894;52.196;9.904;2023-11-21T09:24:55;7.40;1.00
13642;DHT22;6894;52.196;9.904;2023-11-21T09:27:22;7.40;1.00
13642;DHT22;6894;52.196;9.904;2023-11-21T09:29:48;7.30;1.00
13642;DHT22;6894;52.196;9.904;2023-11-21T09:32:15;7.30;1.00
13642;DHT22;6894;52.196;9.904;2023-11-21T09:34:45;7.20;1.00
13642;DHT22;6894;52.196;9.904;2023-11-21T09:37:12;7.20;1.00
13642;DHT22;6894;52.196;9.904;2023-11-21T09:39:38;7.20;1.00
13642;DHT22;6894;52.196;9.904;2023-11-21T09:42:10;7.20;1.00
13642;DHT22;6894;52.196;9.904;2023-11-21T09:44:45;7.20;1.00
13642;DHT22;6894;52.196;9.904;2023-11-21T09:47:15;7.20;1.00
13642;DHT22;6894;52.196;9.904;2023-11-21T09:49:46;7.20;1.00
13642;DHT22;6894;52.196;9.904;2023-11-21T09:52:19;7.20;1.00
13642;DHT22;6894;52.196;9.904;2023-11-21T09:54:48;7.20;1.00
13642;DHT22;6894;52.196;9.904;2023-11-21T09:57:16;7.20;1.00
13642;DHT22;6894;52.196;9.904;2023-11-21T09:59:44;7.30;1.00
13642;DHT22;6894;52.196;9.904;2023-11-21T10:02:11;7.30;1.00
13642;DHT22;6894;52.196;9.904;2023-11-21T10:04:39;7.40;1.00
13642;DHT22;6894;52.196;9.904;2023-11-21T10:07:07;7.40;1.00
13642;DHT22;6894;52.196;9.904;2023-11-21T10:09:35;7.40;1.00
13642;DHT22;6894;52.196;9.904;2023-11-21T10:12:04;7.50;1.00
13642;DHT22;6894;52.196;9.904;2023-11-21T10:14:35;7.60;1.00
13642;DHT22;6894;52.196;9.904;2023-11-21T10:17:03;7.60;1.00
13642;DHT22;6894;52.196;9.904;2023-11-21T10:19:31;7.60;1.00
13642;DHT22;6894;52.196;9.904;2023-11-21T10:21:59;7.60;1.00
13642;DHT22;6894;52.196;9.904;2023-11-21T10:24:28;7.70;1.00
13642;DHT22;6894;52.196;9.904;2023-11-21T10:26:55;7.70;1.00
13642;DHT22;6894;52.196;9.904;2023-11-21T10:29:21;7.80;1.00
13642;DHT22;6894;52.196;9.904;2023-11-21T10:31:49;7.80;1.00
13642;DHT22;6894;52.196;9.904;2023-11-21T10:34:17;7.90;1.00
13642;DHT22;6894;52.196;9.904;2023-11-21T10:36:45;7.80;99.90
13642;DHT22;6894;52.196;9.904;2023-11-21T10:39:14;7.80;99.90
13642;DHT22;6894;52.196;9.904;2023-11-21T10:41:45;7.80;99.90
13642;DHT22;6894;52.196;9.904;2023-11-21T10:44:14;7.70;15.30
13642;DHT22;6894;52.196;9.904;2023-11-21T10:46:45;7.70;36.30
13642;DHT22;6894;52.196;9.904;2023-11-21T10:49:16;7.70;21.00
13642;DHT22;6894;52.196;9.904;2023-11-21T10:51:44;7.70;22.80
13642;DHT22;6894;52.196;9.904;2023-11-21T10:54:11;7.70;18.70
13642;DHT22;6894;52.196;9.904;2023-11-21T10:56:39;8.20;1.00
13642;DHT22;6894;52.196;9.904;2023-11-21T10:59:10;7.70;1.00
13642;DHT22;6894;52.196;9.904;2023-11-21T11:01:41;7.80;1.00
13642;DHT22;6894;52.196;9.904;2023-11-21T11:04:09;7.80;1.00
13642;DHT22;6894;52.196;9.904;2023-11-21T11:06:41;7.80;16.60
13642;DHT22;6894;52.196;9.904;2023-11-21T11:09:08;7.80;1.00
13642;DHT22;6894;52.196;9.904;2023-11-21T11:11:39;7.90;1.00
13642;DHT22;6894;52.196;9.904;2023-11-21T11:14:07;7.90;1.00
13642;DHT22;6894;52.196;9.904;2023-11-21T11:16:37;7.90;1.00
13642;DHT22;6894;52.196;9.904;2023-11-21T11:19:05;7.90;1.00
13642;DHT22;6894;52.196;9.904;2023-11-21T11:21:41;7.80;1.00
13642;DHT22;6894;52.196;9.904;2023-11-21T11:27:06;7.80;1.00
13642;DHT22;6894;52.196;9.904;2023-11-21T11:29:40;7.80;99.90
13642;DHT22;6894;52.196;9.904;2023-11-21T11:32:17;7.80;99.90
13642;DHT22;6894;52.196;9.904;2023-11-21T11:34:53;7.70;99.90
13642;DHT22;6894;52.196;9.904;2023-11-21T11:37:22;7.80;99.90
13642;DHT22;6894;52.196;9.904;2023-11-21T11:39:49;7.80;1.00
13642;DHT22;6894;52.196;9.904;2023-11-21T11:42:17;7.70;1.00
13642;DHT22;6894;52.196;9.904;2023-11-21T11:44:52;7.70;1.00
13642;DHT22;6894;52.196;9.904;2023-11-21T11:47:22;7.70;1.00
13642;DHT22;6894;52.196;9.904;2023-11-21T11:50:01;7.80;1.00
13642;DHT22;6894;52.196;9.904;2023-11-21T11:52:38;7.80;1.00
13642;DHT22;6894;52.196;9.904;2023-11-21T11:55:08;7.90;1.00
13642;DHT22;6894;52.196;9.904;2023-11-21T11:57:37;7.90;1.00
13642;DHT22;6894;52.196;9.904;2023-11-21T12:00:12;7.90;1.00
13642;DHT22;6894;52.196;9.904;2023-11-21T12:02:45;7.90;99.90
13642;DHT22;6894;52.196;9.904;2023-11-21T12:05:13;8.00;99.90
13642;DHT22;6894;52.196;9.904;2023-11-21T12:07:45;8.00;99.90
13642;DHT22;6894;52.196;9.904;2023-11-21T12:10:14;8.00;1.00
13642;DHT22;6894;52.196;9.904;2023-11-21T12:12:44;8.00;1.00
13642;DHT22;6894;52.196;9.904;2023-11-21T12:15:12;8.00;1.00
13642;DHT22;6894;52.196;9.904;2023-11-21T12:17:39;8.00;99.90
13642;DHT22;6894;52.196;9.904;2023-11-21T12:20:09;8.00;99.90
13642;DHT22;6894;52.196;9.904;2023-11-21T12:22:42;8.10;1.00
13642;DHT22;6894;52.196;9.904;2023-11-21T12:25:09;8.10;1.00
13642;DHT22;6894;52.196;9.904;2023-11-21T12:27:42;8.10;99.90
13642;DHT22;6894;52.196;9.904;2023-11-21T12:30:09;8.10;13.40
13642;DHT22;6894;52.196;9.904;2023-11-21T12:32:39;8.10;1.00
13642;DHT22;6894;52.196;9.904;2023-11-21T12:35:08;8.20;1.00
13642;DHT22;6894;52.196;9.904;2023-11-21T12:37:37;8.20;1.00
13642;DHT22;6894;52.196;9.904;2023-11-21T12:40:05;8.20;1.00
13642;DHT22;6894;52.196;9.904;2023-11-21T12:42:33;8.20;1.00
13642;DHT22;6894;52.196;9.904;2023-11-21T12:45:18;8.30;99.90
13642;DHT22;6894;52.196;9.904;2023-11-21T12:47:46;8.30;1.00
13642;DHT22;6894;52.196;9.904;2023-11-21T12:50:15;8.30;1.00
13642;DHT22;6894;52.196;9.904;2023-11-21T12:52:42;8.30;99.90
13642;DHT22;6894;52.196;9.904;2023-11-21T12:55:16;8.30;99.90
13642;DHT22;6894;52.196;9.904;2023-11-21T12:57:44;8.20;1.00
13642;DHT22;6894;52.196;9.904;2023-11-21T13:00:13;8.20;1.00
13642;DHT22;6894;52.196;9.904;2023-11-21T13:02:50;8.20;1.00
13642;DHT22;6894;52.196;9.904;2023-11-21T13:05:26;8.10;1.00
13642;DHT22;6894;52.196;9.904;2023-11-21T13:07:53;8.10;1.00
13642;DHT22;6894;52.196;9.904;2023-11-21T13:10:23;8.10;4.10
13642;DHT22;6894;52.196;9.904;2023-11-21T13:12:53;8.10;1.00
13642;DHT22;6894;52.196;9.904;2023-11-21T13:15:20;8.10;1.00
13642;DHT22;6894;52.196;9.904;2023-11-21T13:17:47;8.10;1.00
13642;DHT22;6894;52.196;9.904;2023-11-21T13:20:15;8.20;1.00
13642;DHT22;6894;52.196;9.904;2023-11-21T13:22:51;8.10;1.00
13642;DHT22;6894;52.196;9.904;2023-11-21T13:25:20;8.10;1.00
13642;DHT22;6894;52.196;9.904;2023-11-21T13:27:46;8.10;1.00
13642;DHT22;6894;52.196;9.904;2023-11-21T13:30:14;8.10;1.00
13642;DHT22;6894;52.196;9.904;2023-11-21T13:32:49;8.00;99.90
13642;DHT22;6894;52.196;9.904;2023-11-21T13:35:16;8.00;48.00
13642;DHT22;6894;52.196;9.904;2023-11-21T13:37:49;7.90;1.00
13642;DHT22;6894;52.196;9.904;2023-11-21T13:40:21;7.90;99.90
13642;DHT22;6894;52.196;9.904;2023-11-21T13:42:51;7.80;99.90
13642;DHT22;6894;52.196;9.904;2023-11-21T13:45:21;7.70;1.00
13642;DHT22;6894;52.196;9.904;2023-11-21T13:47:48;7.70;1.00
13642;DHT22;6894;52.196;9.904;2023-11-21T13:50:16;7.70;1.00
13642;DHT22;6894;52.196;9.904;2023-11-21T13:52:49;7.70;71.60
13642;DHT22;6894;52.196;9.904;2023-11-21T13:55:18;7.70;99.90
13642;DHT22;6894;52.196;9.904;2023-11-21T13:57:47;7.70;99.90
13642;DHT22;6894;52.196;9.904;2023-11-21T14:00:17;7.70;99.90
13642;DHT22;6894;52.196;9.904;2023-11-21T14:02:57;7.70;1.00
13642;DHT22;6894;52.196;9.904;2023-11-21T14:05:26;7.70;1.00
13642;DHT22;6894;52.196;9.904;2023-11-21T14:07:56;7.80;1.00
13642;DHT22;6894;52.196;9.904;2023-11-21T14:10:28;7.80;36.10
13642;DHT22;6894;52.196;9.904;2023-11-21T14:13:02;7.80;99.90
13642;DHT22;6894;52.196;9.904;2023-11-21T14:15:29;7.80;99.90
13642;DHT22;6894;52.196;9.904;2023-11-21T14:17:58;7.80;99.90
13642;DHT22;6894;52.196;9.904;2023-11-21T14:20:28;7.80;1.00
13642;DHT22;6894;52.196;9.904;2023-11-21T14:22:56;7.80;1.00
13642;DHT22;6894;52.196;9.904;2023-11-21T14:25:23;7.80;1.00
13642;DHT22;6894;52.196;9.904;2023-11-21T14:27:52;7.80;99.30
13642;DHT22;6894;52.196;9.904;2023-11-21T14:30:19;7.70;1.00
13642;DHT22;6894;52.196;9.904;2023-11-21T14:32:48;7.60;1.00
13642;DHT22;6894;52.196;9.904;2023-11-21T14:35:15;7.60;1.00
13642;DHT22;6894;52.196;9.904;2023-11-21T14:37:42;7.60;1.00
13642;DHT22;6894;52.196;9.904;2023-11-21T14:40:12;7.50;99.90
13642;DHT22;6894;52.196;9.904;2023-11-21T14:42:41;7.60;99.90
13642;DHT22;6894;52.196;9.904;2023-11-21T14:45:09;7.50;99.90
13642;DHT22;6894;52.196;9.904;2023-11-21T14:47:38;7.50;1.00
13642;DHT22;6894;52.196;9.904;2023-11-21T14:50:09;7.50;1.00
13642;DHT22;6894;52.196;9.904;2023-11-21T14:53:04;7.40;57.80
13642;DHT22;6894;52.196;9.904;2023-11-21T14:55:32;7.40;1.00
13642;DHT22;6894;52.196;9.904;2023-11-21T14:58:13;7.40;1.00
13642;DHT22;6894;52.196;9.904;2023-11-21T15:00:42;7.30;1.00
13642;DHT22;6894;52.196;9.904;2023-11-21T15:03:11;7.30;1.00
13642;DHT22;6894;52.196;9.904;2023-11-21T15:05:50;7.30;1.00
13642;DHT22;6894;52.196;9.904;2023-11-21T15:08:19;7.30;99.90
13642;DHT22;6894;52.196;9.904;2023-11-21T15:10:53;7.30;3.90
13642;DHT22;6894;52.196;9.904;2023-11-21T15:13:20;7.20;99.90
13642;DHT22;6894;52.196;9.904;2023-11-21T15:15:47;7.20;1.00
13642;DHT22;6894;52.196;9.904;2023-11-21T15:18:13;7.20;1.00
13642;DHT22;6894;52.196;9.904;2023-11-21T15:20:40;7.10;1.00
13642;DHT22;6894;52.196;9.904;2023-11-21T15:23:07;7.20;99.90
13642;DHT22;6894;52.196;9.904;2023-11-21T15:25:34;7.00;14.70
13642;DHT22;6894;52.196;9.904;2023-11-21T15:28:03;7.10;99.90
13642;DHT22;6894;52.196;9.904;2023-11-21T15:30:30;7.00;1.00
13642;DHT22;6894;52.196;9.904;2023-11-21T15:32:57;7.00;1.00
13642;DHT22;6894;52.196;9.904;2023-11-21T15:35:24;7.00;1.00
13642;DHT22;6894;52.196;9.904;2023-11-21T15:37:53;7.00;1.00
13642;DHT22;6894;52.196;9.904;2023-11-21T15:40:19;6.90;99.90
13642;DHT22;6894;52.196;9.904;2023-11-21T15:42:46;6.90;99.90
13642;DHT22;6894;52.196;9.904;2023-11-21T15:45:15;6.80;1.00
13642;DHT22;6894;52.196;9.904;2023-11-21T15:47:48;6.70;99.90
13642;DHT22;6894;52.196;9.904;2023-11-21T15:50:15;6.70;1.00
13642;DHT22;6894;52.196;9.904;2023-11-21T15:52:42;6.60;1.00
13642;DHT22;6894;52.196;9.904;2023-11-21T15:55:09;6.50;1.00
13642;DHT22;6894;52.196;9.904;2023-11-21T15:57:37;6.50;67.40
13642;DHT22;6894;52.196;9.904;2023-11-21T16:00:05;6.40;18.70
13642;DHT22;6894;52.196;9.904;2023-11-21T16:02:38;6.40;1.00
13642;DHT22;6894;52.196;9.904;2023-11-21T16:05:08;6.30;86.40
13642;DHT22;6894;52.196;9.904;2023-11-21T16:07:39;6.30;99.90
13642;DHT22;6894;52.196;9.904;2023-11-21T16:10:07;6.20;99.90
13642;DHT22;6894;52.196;9.904;2023-11-21T16:12:36;6.20;1.00
13642;DHT22;6894;52.196;9.904;2023-11-21T16:15:04;6.20;1.00
13642;DHT22;6894;52.196;9.904;2023-11-21T16:17:33;6.10;1.00
13642;DHT22;6894;52.196;9.904;2023-11-21T16:20:10;6.20;99.90
13642;DHT22;6894;52.196;9.904;2023-11-21T16:22:41;6.20;1.00
13642;DHT22;6894;52.196;9.904;2023-11-21T16:25:09;6.10;1.00